»·PEaware :: N286WF KOXR-KBFL

N286WF :: KOXR-KBFL

FLIGHT INFORMATION

Flight Status: Arrived
Operator: Privately registered:
United States
More flights under this callsign
Pilot: Frank W. (16848)
Aircraft: Unknown
(P28U)
More flights by this aircraft type
Origin: KOXR Oxnard
United States
Destination: KBFL Meadows
United States
More flights between these airports :: More routes between these airports
Route: GMN
File this flight plan on PilotEdge
Remarks:
Altitude:
(Current/Filed)
10,500ft
Speed:
(Current/Filed)
140kts
Departed: 16-Dec-18 07:36 PM
Arrived: 16-Dec-18 08:41 PM
Distance/Time
Traveled:
74nm/1:05
Distance/Time
To Go:
Arrived

Flight Plot

Page will automatically refresh every two minutes.


Map Options




Map Legend


Flown Route
Filed Route
Departure Airport
Arrival Airport
Navaid (VOR, NDB)
Fix

Horizontal Profiles

Position Reports

Time Latitude Longitude Heading Altitude Ground
Speed
16-Dec-18 19:01 34.198897 -119.199242 84 38ft 0kts
16-Dec-18 19:02 34.198897 -119.199242 84 38ft 0kts
16-Dec-18 19:03 34.198897 -119.199242 84 38ft 0kts
16-Dec-18 19:04 34.198897 -119.199242 84 38ft 0kts
16-Dec-18 19:05 34.198897 -119.199242 84 38ft 0kts
16-Dec-18 19:06 34.198897 -119.199242 84 38ft 0kts
16-Dec-18 19:07 34.198897 -119.199242 84 38ft 0kts
16-Dec-18 19:08 34.198897 -119.199242 84 38ft 0kts
16-Dec-18 19:09 34.198897 -119.199242 84 38ft 0kts
16-Dec-18 19:09 34.198897 -119.199242 84 38ft 0kts
16-Dec-18 19:17 34.198897 -119.199242 84 38ft 0kts
16-Dec-18 19:18 34.198897 -119.199242 84 38ft 0kts
16-Dec-18 19:19 34.198897 -119.199242 84 38ft 0kts
16-Dec-18 19:20 34.198897 -119.199242 84 38ft 0kts
16-Dec-18 19:21 34.198897 -119.199242 84 38ft 0kts
16-Dec-18 19:22 34.198897 -119.199242 84 38ft 0kts
16-Dec-18 19:23 34.198897 -119.199242 84 38ft 0kts
16-Dec-18 19:24 34.198897 -119.199242 84 38ft 0kts
16-Dec-18 19:25 34.198897 -119.199242 84 38ft 0kts
16-Dec-18 19:26 34.198897 -119.199242 84 38ft 0kts
16-Dec-18 19:27 34.198897 -119.199242 84 38ft 0kts
16-Dec-18 19:28 34.198897 -119.199242 84 38ft 0kts
16-Dec-18 19:29 34.198897 -119.199241 84 38ft 0kts
16-Dec-18 19:30 34.198897 -119.199242 84 38ft 0kts
16-Dec-18 19:31 34.198897 -119.199242 84 38ft 0kts
16-Dec-18 19:32 34.199782 -119.197645 51 38ft 12kts
16-Dec-18 19:33 34.200530 -119.197525 359 38ft 10kts
16-Dec-18 19:34 34.200727 -119.197923 267 38ft 18kts
16-Dec-18 19:35 34.201372 -119.227430 294 911ft 101kts
16-Dec-18 19:36 34.221048 -119.239219 32 2470ft 95kts
16-Dec-18 19:37 34.236924 -119.215900 34 4153ft 92kts
16-Dec-18 19:38 34.254249 -119.194020 44 5736ft 92kts
16-Dec-18 19:39 34.270228 -119.169270 27 7278ft 93kts
16-Dec-18 19:40 34.294756 -119.155147 24 8700ft 104kts
16-Dec-18 19:41 34.321664 -119.141684 30 10189ft 104kts
16-Dec-18 19:42 34.353788 -119.120659 27 10597ft 154kts
16-Dec-18 19:43 34.393160 -119.097336 26 10404ft 154kts
16-Dec-18 19:44 34.431251 -119.075452 24 10342ft 150kts
16-Dec-18 19:45 34.468839 -119.053973 25 10210ft 153kts
16-Dec-18 19:46 34.506598 -119.032332 25 10033ft 152kts
16-Dec-18 19:47 34.546298 -119.009536 25 9405ft 163kts
16-Dec-18 19:48 34.586173 -118.986636 25 8964ft 155kts
16-Dec-18 19:49 34.625394 -118.964071 25 8573ft 157kts
16-Dec-18 19:50 34.662923 -118.942480 26 8401ft 149kts
16-Dec-18 19:51 34.698893 -118.921660 21 8379ft 137kts
16-Dec-18 19:52 34.733517 -118.901920 21 8503ft 145kts
16-Dec-18 19:53 34.773436 -118.878895 22 8525ft 164kts
16-Dec-18 19:54 34.815711 -118.865727 343 8732ft 144kts
16-Dec-18 19:55 34.858490 -118.878292 342 8465ft 162kts
16-Dec-18 19:56 34.901873 -118.891569 341 8433ft 156kts
16-Dec-18 19:57 34.943747 -118.904557 340 8474ft 155kts
16-Dec-18 19:58 34.985696 -118.917610 340 8444ft 155kts
16-Dec-18 19:59 35.027423 -118.930605 340 8389ft 155kts
16-Dec-18 20:00 35.069092 -118.943574 339 8345ft 155kts
16-Dec-18 20:01 35.109008 -118.955929 339 8381ft 151kts
16-Dec-18 20:02 35.148927 -118.968471 338 8463ft 150kts
16-Dec-18 20:03 35.189459 -118.981086 338 8388ft 147kts
16-Dec-18 20:04 35.229830 -118.994445 329 7438ft 143kts
16-Dec-18 20:05 35.249908 -119.029675 300 6909ft 127kts
16-Dec-18 20:06 35.251758 -119.032930 302 6844ft 128kts
16-Dec-18 20:07 35.251758 -119.032930 302 6844ft 128kts
16-Dec-18 20:08 35.251758 -119.032930 302 6844ft 128kts
16-Dec-18 20:09 35.251758 -119.032930 302 6844ft 128kts
16-Dec-18 20:10 35.251758 -119.032930 302 6844ft 128kts
16-Dec-18 20:11 35.273166 -119.061130 313 6506ft 118kts
16-Dec-18 20:12 35.299488 -119.084188 322 6252ft 123kts
16-Dec-18 20:13 35.329635 -119.111362 312 5778ft 135kts
16-Dec-18 20:14 35.356963 -119.142910 313 5430ft 135kts
16-Dec-18 20:15 35.384549 -119.170595 320 5494ft 123kts
16-Dec-18 20:16 35.412569 -119.195224 323 5537ft 125kts
16-Dec-18 20:17 35.443847 -119.214381 15 5398ft 143kts
16-Dec-18 20:18 35.446758 -119.170824 98 4486ft 130kts
16-Dec-18 20:19 35.432602 -119.132533 170 3353ft 135kts
16-Dec-18 20:20 35.432118 -119.132442 173 3338ft 135kts
16-Dec-18 20:21 35.432118 -119.132442 173 3338ft 135kts
16-Dec-18 20:22 35.432118 -119.132442 173 3338ft 135kts
16-Dec-18 20:23 35.432118 -119.132442 173 3338ft 135kts
16-Dec-18 20:24 35.432118 -119.132442 173 3338ft 135kts
16-Dec-18 20:25 35.432118 -119.132442 173 3338ft 135kts
16-Dec-18 20:26 35.425432 -119.134430 220 3096ft 132kts
16-Dec-18 20:27 35.436494 -119.132971 105 2653ft 122kts
16-Dec-18 20:28 35.413165 -119.152399 253 3319ft 125kts
16-Dec-18 20:29 35.415899 -119.195403 306 3845ft 139kts
16-Dec-18 20:30 35.447282 -119.226174 330 3839ft 148kts
16-Dec-18 20:31 35.489013 -119.237285 354 3463ft 138kts
16-Dec-18 20:32 35.494719 -119.208292 110 3704ft 126kts
16-Dec-18 20:33 35.474857 -119.176223 176 3684ft 124kts
16-Dec-18 20:34 35.455417 -119.156654 105 3503ft 126kts
16-Dec-18 20:35 35.444633 -119.116940 104 2845ft 119kts
16-Dec-18 20:36 35.433487 -119.083077 124 1586ft 109kts
16-Dec-18 20:37 35.413198 -119.054039 130 1560ft 116kts
16-Dec-18 20:38 35.420591 -119.041033 325 925ft 76kts
16-Dec-18 20:39 35.434449 -119.056977 318 512ft 61kts
16-Dec-18 20:40 35.440285 -119.062646 26 496ft 5kts
16-Dec-18 20:41 35.440360 -119.062586 37 496ft 0kts
16-Dec-18 20:42 35.440360 -119.062586 37 496ft 0kts
16-Dec-18 20:43 35.439289 -119.060531 134 496ft 13kts
16-Dec-18 20:44 35.435453 -119.055916 136 496ft 24kts
16-Dec-18 20:45 35.430797 -119.050360 135 496ft 18kts
16-Dec-18 20:46 35.431207 -119.049081 219 496ft 0kts
16-Dec-18 20:47 35.431207 -119.049081 219 496ft 0kts
16-Dec-18 20:48 35.431207 -119.049081 219 496ft 0kts
16-Dec-18 20:49 35.431207 -119.049081 219 496ft 0kts
16-Dec-18 20:50 35.431207 -119.049081 219 496ft 0kts
16-Dec-18 20:51 35.431207 -119.049081 219 496ft 0kts
16-Dec-18 20:52 35.431207 -119.049081 219 496ft 0kts
16-Dec-18 20:53 35.431207 -119.049081 219 496ft 0kts
16-Dec-18 20:55 35.431207 -119.049081 219 496ft 0kts
16-Dec-18 20:56 35.431207 -119.049081 219 496ft 0kts

Navigation Log

Ident Type
Flight plan parsing failed, navigation log unavailable